sensor_id;sensor_type;location;lat;lon;timestamp;temperature;humidity
13470;DHT22;6807;48.682;9.032;2023-04-30T00:00:47;10.40;1.00
13470;DHT22;6807;48.682;9.032;2023-04-30T00:03:14;10.40;1.00
13470;DHT22;6807;48.682;9.032;2023-04-30T00:05:41;10.40;1.00
13470;DHT22;6807;48.682;9.032;2023-04-30T00:08:08;10.30;1.00
13470;DHT22;6807;48.682;9.032;2023-04-30T00:10:35;10.40;1.00
13470;DHT22;6807;48.682;9.032;2023-04-30T00:13:07;10.30;1.00
13470;DHT22;6807;48.682;9.032;2023-04-30T00:15:51;10.40;1.00
13470;DHT22;6807;48.682;9.032;2023-04-30T00:18:18;10.30;1.00
13470;DHT22;6807;48.682;9.032;2023-04-30T00:20:45;10.30;1.00
13470;DHT22;6807;48.682;9.032;2023-04-30T00:23:12;10.30;1.00
13470;DHT22;6807;48.682;9.032;2023-04-30T00:25:39;10.30;1.00
13470;DHT22;6807;48.682;9.032;2023-04-30T00:28:08;10.20;1.00
13470;DHT22;6807;48.682;9.032;2023-04-30T00:30:35;10.20;1.00
13470;DHT22;6807;48.682;9.032;2023-04-30T00:33:02;10.30;1.00
13470;DHT22;6807;48.682;9.032;2023-04-30T00:35:29;10.20;1.00
13470;DHT22;6807;48.682;9.032;2023-04-30T00:37:56;10.10;1.00
13470;DHT22;6807;48.682;9.032;2023-04-30T00:40:23;10.10;1.00
13470;DHT22;6807;48.682;9.032;2023-04-30T00:42:51;10.10;1.00
13470;DHT22;6807;48.682;9.032;2023-04-30T00:45:22;10.10;1.00
13470;DHT22;6807;48.682;9.032;2023-04-30T00:47:49;10.10;1.00
13470;DHT22;6807;48.682;9.032;2023-04-30T00:50:16;10.00;1.00
13470;DHT22;6807;48.682;9.032;2023-04-30T00:52:44;10.00;1.00
13470;DHT22;6807;48.682;9.032;2023-04-30T00:55:11;9.90;1.00
13470;DHT22;6807;48.682;9.032;2023-04-30T00:57:39;10.00;1.00
13470;DHT22;6807;48.682;9.032;2023-04-30T01:00:07;9.90;1.00
13470;DHT22;6807;48.682;9.032;2023-04-30T01:02:38;9.80;1.00
13470;DHT22;6807;48.682;9.032;2023-04-30T01:05:06;9.80;1.00
13470;DHT22;6807;48.682;9.032;2023-04-30T01:07:34;9.80;1.00
13470;DHT22;6807;48.682;9.032;2023-04-30T01:10:03;9.70;1.00
13470;DHT22;6807;48.682;9.032;2023-04-30T01:12:37;9.80;1.00
13470;DHT22;6807;48.682;9.032;2023-04-30T01:15:10;9.80;1.00
13470;DHT22;6807;48.682;9.032;2023-04-30T01:17:47;9.80;1.00
13470;DHT22;6807;48.682;9.032;2023-04-30T01:20:18;9.70;1.00
13470;DHT22;6807;48.682;9.032;2023-04-30T01:22:51;9.70;1.00
13470;DHT22;6807;48.682;9.032;2023-04-30T01:25:43;9.70;1.00
13470;DHT22;6807;48.682;9.032;2023-04-30T01:28:14;9.70;1.00
13470;DHT22;6807;48.682;9.032;2023-04-30T01:30:42;9.70;1.00
13470;DHT22;6807;48.682;9.032;2023-04-30T01:33:10;9.70;1.00
13470;DHT22;6807;48.682;9.032;2023-04-30T01:35:57;9.70;1.00
13470;DHT22;6807;48.682;9.032;2023-04-30T01:38:42;9.70;1.00
13470;DHT22;6807;48.682;9.032;2023-04-30T01:41:19;9.60;1.00
13470;DHT22;6807;48.682;9.032;2023-04-30T01:43:57;9.60;1.00
13470;DHT22;6807;48.682;9.032;2023-04-30T01:46:28;9.60;1.00
13470;DHT22;6807;48.682;9.032;2023-04-30T01:49:04;9.70;1.00
13470;DHT22;6807;48.682;9.032;2023-04-30T01:51:39;9.60;1.00
13470;DHT22;6807;48.682;9.032;2023-04-30T01:54:13;9.70;1.00
13470;DHT22;6807;48.682;9.032;2023-04-30T01:56:48;9.70;1.00
13470;DHT22;6807;48.682;9.032;2023-04-30T01:59:19;9.70;1.00
13470;DHT22;6807;48.682;9.032;2023-04-30T02:01:46;9.70;1.00
13470;DHT22;6807;48.682;9.032;2023-04-30T02:04:15;9.70;1.00
13470;DHT22;6807;48.682;9.032;2023-04-30T02:06:44;9.70;1.00
13470;DHT22;6807;48.682;9.032;2023-04-30T02:09:11;9.60;1.00
13470;DHT22;6807;48.682;9.032;2023-04-30T02:11:39;9.60;1.00
13470;DHT22;6807;48.682;9.032;2023-04-30T02:14:06;9.60;1.00
13470;DHT22;6807;48.682;9.032;2023-04-30T02:16:35;9.60;1.00
13470;DHT22;6807;48.682;9.032;2023-04-30T02:19:02;9.60;1.00
13470;DHT22;6807;48.682;9.032;2023-04-30T02:21:29;9.60;1.00
13470;DHT22;6807;48.682;9.032;2023-04-30T02:23:56;9.60;1.00
13470;DHT22;6807;48.682;9.032;2023-04-30T02:26:23;9.60;1.00
13470;DHT22;6807;48.682;9.032;2023-04-30T02:28:51;9.60;1.00
13470;DHT22;6807;48.682;9.032;2023-04-30T02:31:18;9.60;1.00
13470;DHT22;6807;48.682;9.032;2023-04-30T02:33:47;9.50;1.00
13470;DHT22;6807;48.682;9.032;2023-04-30T02:36:15;9.50;1.00
13470;DHT22;6807;48.682;9.032;2023-04-30T02:38:42;9.50;1.00
13470;DHT22;6807;48.682;9.032;2023-04-30T02:41:09;9.50;1.00
13470;DHT22;6807;48.682;9.032;2023-04-30T02:43:36;9.50;1.00
13470;DHT22;6807;48.682;9.032;2023-04-30T02:46:04;9.50;1.00
13470;DHT22;6807;48.682;9.032;2023-04-30T02:48:31;9.40;1.00
13470;DHT22;6807;48.682;9.032;2023-04-30T02:51:01;9.40;1.00
13470;DHT22;6807;48.682;9.032;2023-04-30T02:53:29;9.40;1.00
13470;DHT22;6807;48.682;9.032;2023-04-30T02:55:56;9.40;1.00
13470;DHT22;6807;48.682;9.032;2023-04-30T02:58:23;9.00;1.00
13470;DHT22;6807;48.682;9.032;2023-04-30T03:00:51;9.30;1.00
13470;DHT22;6807;48.682;9.032;2023-04-30T03:03:18;9.40;1.00
13470;DHT22;6807;48.682;9.032;2023-04-30T03:05:45;9.30;1.00
13470;DHT22;6807;48.682;9.032;2023-04-30T03:08:13;9.30;1.00
13470;DHT22;6807;48.682;9.032;2023-04-30T03:10:40;9.30;1.00
13470;DHT22;6807;48.682;9.032;2023-04-30T03:13:07;9.30;1.00
13470;DHT22;6807;48.682;9.032;2023-04-30T03:15:35;9.30;1.00
13470;DHT22;6807;48.682;9.032;2023-04-30T03:18:03;9.30;1.00
13470;DHT22;6807;48.682;9.032;2023-04-30T03:20:30;9.30;1.00
13470;DHT22;6807;48.682;9.032;2023-04-30T03:22:57;9.30;1.00
13470;DHT22;6807;48.682;9.032;2023-04-30T03:25:25;9.20;1.00
13470;DHT22;6807;48.682;9.032;2023-04-30T03:27:55;9.20;1.00
13470;DHT22;6807;48.682;9.032;2023-04-30T03:30:23;9.20;1.00
13470;DHT22;6807;48.682;9.032;2023-04-30T03:32:50;9.10;1.00
13470;DHT22;6807;48.682;9.032;2023-04-30T03:35:17;9.10;1.00
13470;DHT22;6807;48.682;9.032;2023-04-30T03:37:45;9.10;1.00
13470;DHT22;6807;48.682;9.032;2023-04-30T03:40:12;9.10;1.00
13470;DHT22;6807;48.682;9.032;2023-04-30T03:42:40;9.00;1.00
13470;DHT22;6807;48.682;9.032;2023-04-30T03:45:08;9.00;1.00
13470;DHT22;6807;48.682;9.032;2023-04-30T03:47:36;9.10;1.00
13470;DHT22;6807;48.682;9.032;2023-04-30T03:50:04;9.10;1.00
13470;DHT22;6807;48.682;9.032;2023-04-30T03:52:31;9.10;1.00
13470;DHT22;6807;48.682;9.032;2023-04-30T03:55:00;9.10;1.00
13470;DHT22;6807;48.682;9.032;2023-04-30T03:57:28;9.10;1.00
13470;DHT22;6807;48.682;9.032;2023-04-30T03:59:57;9.10;1.00
13470;DHT22;6807;48.682;9.032;2023-04-30T04:02:25;9.10;1.00
13470;DHT22;6807;48.682;9.032;2023-04-30T04:04:54;9.00;1.00
13470;DHT22;6807;48.682;9.032;2023-04-30T04:07:22;9.10;1.00
13470;DHT22;6807;48.682;9.032;2023-04-30T04:09:50;9.10;1.00
13470;DHT22;6807;48.682;9.032;2023-04-30T04:12:17;9.10;1.00
13470;DHT22;6807;48.682;9.032;2023-04-30T04:14:47;9.10;1.00
13470;DHT22;6807;48.682;9.032;2023-04-30T04:17:15;9.00;1.00
13470;DHT22;6807;48.682;9.032;2023-04-30T04:19:42;9.00;1.00
13470;DHT22;6807;48.682;9.032;2023-04-30T04:22:10;9.00;1.00
13470;DHT22;6807;48.682;9.032;2023-04-30T04:24:37;9.40;1.00
13470;DHT22;6807;48.682;9.032;2023-04-30T04:27:04;9.00;1.00
13470;DHT22;6807;48.682;9.032;2023-04-30T04:29:31;9.00;1.00
13470;DHT22;6807;48.682;9.032;2023-04-30T04:31:59;9.10;1.00
13470;DHT22;6807;48.682;9.032;2023-04-30T04:34:28;9.00;1.00
13470;DHT22;6807;48.682;9.032;2023-04-30T04:36:55;9.00;1.00
13470;DHT22;6807;48.682;9.032;2023-04-30T04:39:24;9.00;1.00
13470;DHT22;6807;48.682;9.032;2023-04-30T04:41:51;9.00;1.00
13470;DHT22;6807;48.682;9.032;2023-04-30T04:44:18;9.00;1.00
13470;DHT22;6807;48.682;9.032;2023-04-30T04:46:46;9.00;1.00
13470;DHT22;6807;48.682;9.032;2023-04-30T04:49:13;9.10;1.00
13470;DHT22;6807;48.682;9.032;2023-04-30T04:51:42;9.10;1.00
13470;DHT22;6807;48.682;9.032;2023-04-30T04:54:10;9.00;1.00
13470;DHT22;6807;48.682;9.032;2023-04-30T04:56:38;9.10;1.00
13470;DHT22;6807;48.682;9.032;2023-04-30T04:59:05;9.10;1.00
13470;DHT22;6807;48.682;9.032;2023-04-30T05:01:32;9.10;1.00
13470;DHT22;6807;48.682;9.032;2023-04-30T05:03:59;9.20;1.00
13470;DHT22;6807;48.682;9.032;2023-04-30T05:06:26;9.20;1.00
13470;DHT22;6807;48.682;9.032;2023-04-30T05:08:55;9.20;1.00
13470;DHT22;6807;48.682;9.032;2023-04-30T05:11:23;9.30;1.00
13470;DHT22;6807;48.682;9.032;2023-04-30T05:13:51;9.40;1.00
13470;DHT22;6807;48.682;9.032;2023-04-30T05:16:18;9.40;1.00
13470;DHT22;6807;48.682;9.032;2023-04-30T05:18:45;9.50;1.00
13470;DHT22;6807;48.682;9.032;2023-04-30T05:21:13;9.50;1.00
13470;DHT22;6807;48.682;9.032;2023-04-30T05:23:41;9.60;1.00
13470;DHT22;6807;48.682;9.032;2023-04-30T05:26:09;9.60;99.90
13470;DHT22;6807;48.682;9.032;2023-04-30T05:28:37;9.70;99.90
13470;DHT22;6807;48.682;9.032;2023-04-30T05:31:04;9.70;99.90
13470;DHT22;6807;48.682;9.032;2023-04-30T05:33:32;9.70;99.90
13470;DHT22;6807;48.682;9.032;2023-04-30T05:36:13;9.70;99.90
13470;DHT22;6807;48.682;9.032;2023-04-30T05:38:41;9.70;99.90
13470;DHT22;6807;48.682;9.032;2023-04-30T05:41:11;9.80;1.00
13470;DHT22;6807;48.682;9.032;2023-04-30T05:43:38;9.90;99.90
13470;DHT22;6807;48.682;9.032;2023-04-30T05:46:05;9.80;99.90
13470;DHT22;6807;48.682;9.032;2023-04-30T05:48:32;9.90;99.90
13470;DHT22;6807;48.682;9.032;2023-04-30T05:51:00;10.10;99.90
13470;DHT22;6807;48.682;9.032;2023-04-30T05:53:27;10.20;99.90
13470;DHT22;6807;48.682;9.032;2023-04-30T05:55:55;10.40;99.90
13470;DHT22;6807;48.682;9.032;2023-04-30T05:58:24;10.60;99.90
13470;DHT22;6807;48.682;9.032;2023-04-30T06:00:52;10.70;99.90
13470;DHT22;6807;48.682;9.032;2023-04-30T06:03:19;10.60;99.90
13470;DHT22;6807;48.682;9.032;2023-04-30T06:05:47;10.60;99.90
13470;DHT22;6807;48.682;9.032;2023-04-30T06:08:14;10.50;99.90
13470;DHT22;6807;48.682;9.032;2023-04-30T06:10:41;10.60;99.90
13470;DHT22;6807;48.682;9.032;2023-04-30T06:13:08;10.50;99.90
13470;DHT22;6807;48.682;9.032;2023-04-30T06:15:37;10.40;99.90
13470;DHT22;6807;48.682;9.032;2023-04-30T06:18:04;10.60;99.90
13470;DHT22;6807;48.682;9.032;2023-04-30T06:20:32;10.60;99.90
13470;DHT22;6807;48.682;9.032;2023-04-30T06:22:59;10.60;99.90
13470;DHT22;6807;48.682;9.032;2023-04-30T06:25:27;10.80;99.90
13470;DHT22;6807;48.682;9.032;2023-04-30T06:27:54;11.10;99.90
13470;DHT22;6807;48.682;9.032;2023-04-30T06:30:22;11.10;99.90
13470;DHT22;6807;48.682;9.032;2023-04-30T06:32:51;11.40;99.90
13470;DHT22;6807;48.682;9.032;2023-04-30T06:35:18;11.20;99.90
13470;DHT22;6807;48.682;9.032;2023-04-30T06:37:46;11.10;99.90
13470;DHT22;6807;48.682;9.032;2023-04-30T06:40:13;11.60;99.90
13470;DHT22;6807;48.682;9.032;2023-04-30T06:42:41;11.90;99.90
13470;DHT22;6807;48.682;9.032;2023-04-30T06:45:09;12.10;99.90
13470;DHT22;6807;48.682;9.032;2023-04-30T06:47:37;12.50;99.90
13470;DHT22;6807;48.682;9.032;2023-04-30T06:50:08;12.20;99.90
13470;DHT22;6807;48.682;9.032;2023-04-30T06:52:35;12.10;99.90
13470;DHT22;6807;48.682;9.032;2023-04-30T06:55:02;12.20;99.90
13470;DHT22;6807;48.682;9.032;2023-04-30T06:57:30;12.30;99.90
13470;DHT22;6807;48.682;9.032;2023-04-30T06:59:57;12.50;99.90
13470;DHT22;6807;48.682;9.032;2023-04-30T07:02:24;12.30;99.90
13470;DHT22;6807;48.682;9.032;2023-04-30T07:04:52;12.20;99.90
13470;DHT22;6807;48.682;9.032;2023-04-30T07:07:21;12.10;99.90
13470;DHT22;6807;48.682;9.032;2023-04-30T07:09:48;12.30;99.90
13470;DHT22;6807;48.682;9.032;2023-04-30T07:12:15;12.30;99.90
13470;DHT22;6807;48.682;9.032;2023-04-30T07:14:42;12.30;99.90
13470;DHT22;6807;48.682;9.032;2023-04-30T07:17:10;12.10;99.90
13470;DHT22;6807;48.682;9.032;2023-04-30T07:19:37;12.70;99.90
13470;DHT22;6807;48.682;9.032;2023-04-30T07:22:04;13.00;99.90
13470;DHT22;6807;48.682;9.032;2023-04-30T07:24:33;13.00;99.90
13470;DHT22;6807;48.682;9.032;2023-04-30T07:27:00;13.70;99.90
13470;DHT22;6807;48.682;9.032;2023-04-30T07:29:28;13.50;99.90
13470;DHT22;6807;48.682;9.032;2023-04-30T07:31:56;14.30;99.90
13470;DHT22;6807;48.682;9.032;2023-04-30T07:34:24;14.70;99.90
13470;DHT22;6807;48.682;9.032;2023-04-30T07:36:52;15.20;99.90
13470;DHT22;6807;48.682;9.032;2023-04-30T07:39:20;15.70;99.90
13470;DHT22;6807;48.682;9.032;2023-04-30T07:41:48;15.30;99.90
13470;DHT22;6807;48.682;9.032;2023-04-30T07:44:15;15.70;88.00
13470;DHT22;6807;48.682;9.032;2023-04-30T07:46:42;15.60;99.90
13470;DHT22;6807;48.682;9.032;2023-04-30T07:49:10;16.40;93.10
13470;DHT22;6807;48.682;9.032;2023-04-30T07:51:37;17.00;99.90
13470;DHT22;6807;48.682;9.032;2023-04-30T07:54:04;17.60;99.90
13470;DHT22;6807;48.682;9.032;2023-04-30T07:56:32;17.70;98.80
13470;DHT22;6807;48.682;9.032;2023-04-30T07:59:00;18.30;80.90
13470;DHT22;6807;48.682;9.032;2023-04-30T08:01:27;17.40;43.70
13470;DHT22;6807;48.682;9.032;2023-04-30T08:03:55;17.30;37.50
13470;DHT22;6807;48.682;9.032;2023-04-30T08:06:22;17.20;28.20
13470;DHT22;6807;48.682;9.032;2023-04-30T08:08:49;16.70;25.40
13470;DHT22;6807;48.682;9.032;2023-04-30T08:11:16;16.60;27.90
13470;DHT22;6807;48.682;9.032;2023-04-30T08:13:43;16.50;74.10
13470;DHT22;6807;48.682;9.032;2023-04-30T08:16:12;16.20;40.60
13470;DHT22;6807;48.682;9.032;2023-04-30T08:18:40;17.00;53.40
13470;DHT22;6807;48.682;9.032;2023-04-30T08:21:09;17.00;42.90
13470;DHT22;6807;48.682;9.032;2023-04-30T08:23:37;16.70;25.30
13470;DHT22;6807;48.682;9.032;2023-04-30T08:26:04;15.30;13.50
13470;DHT22;6807;48.682;9.032;2023-04-30T08:28:31;14.60;8.30
13470;DHT22;6807;48.682;9.032;2023-04-30T08:30:58;15.30;70.90
13470;DHT22;6807;48.682;9.032;2023-04-30T08:33:27;16.90;99.90
13470;DHT22;6807;48.682;9.032;2023-04-30T08:35:54;16.20;14.70
13470;DHT22;6807;48.682;9.032;2023-04-30T08:38:22;15.70;11.00
13470;DHT22;6807;48.682;9.032;2023-04-30T08:40:55;15.20;4.20
13470;DHT22;6807;48.682;9.032;2023-04-30T08:43:26;15.10;3.00
13470;DHT22;6807;48.682;9.032;2023-04-30T08:45:53;14.90;22.00
13470;DHT22;6807;48.682;9.032;2023-04-30T08:48:23;14.90;1.00
13470;DHT22;6807;48.682;9.032;2023-04-30T08:50:52;14.90;1.00
13470;DHT22;6807;48.682;9.032;2023-04-30T08:53:20;16.20;79.50
13470;DHT22;6807;48.682;9.032;2023-04-30T08:55:47;16.30;28.90
13470;DHT22;6807;48.682;9.032;2023-04-30T08:58:16;15.80;63.50
13470;DHT22;6807;48.682;9.032;2023-04-30T09:00:47;15.20;21.30
13470;DHT22;6807;48.682;9.032;2023-04-30T09:03:14;14.50;23.50
13470;DHT22;6807;48.682;9.032;2023-04-30T09:05:42;14.60;11.00
13470;DHT22;6807;48.682;9.032;2023-04-30T09:08:16;14.70;61.80
13470;DHT22;6807;48.682;9.032;2023-04-30T09:10:44;15.00;27.30
13470;DHT22;6807;48.682;9.032;2023-04-30T09:13:11;14.80;30.60
13470;DHT22;6807;48.682;9.032;2023-04-30T09:15:42;14.70;26.80
13470;DHT22;6807;48.682;9.032;2023-04-30T09:18:14;14.70;44.50
13470;DHT22;6807;48.682;9.032;2023-04-30T09:20:57;14.30;8.30
13470;DHT22;6807;48.682;9.032;2023-04-30T09:23:27;14.40;20.30
13470;DHT22;6807;48.682;9.032;2023-04-30T09:25:56;14.40;12.30
13470;DHT22;6807;48.682;9.032;2023-04-30T09:28:24;14.20;4.90
13470;DHT22;6807;48.682;9.032;2023-04-30T09:30:55;14.00;1.00
13470;DHT22;6807;48.682;9.032;2023-04-30T09:33:22;14.40;16.60
13470;DHT22;6807;48.682;9.032;2023-04-30T09:35:50;14.80;13.00
13470;DHT22;6807;48.682;9.032;2023-04-30T09:38:30;14.70;1.00
13470;DHT22;6807;48.682;9.032;2023-04-30T09:40:58;14.60;15.20
13470;DHT22;6807;48.682;9.032;2023-04-30T09:43:27;14.60;1.00
13470;DHT22;6807;48.682;9.032;2023-04-30T09:45:57;14.50;1.00
13470;DHT22;6807;48.682;9.032;2023-04-30T09:48:25;14.30;1.00
13470;DHT22;6807;48.682;9.032;2023-04-30T09:50:52;14.60;1.00
13470;DHT22;6807;48.682;9.032;2023-04-30T09:53:20;14.70;1.00
13470;DHT22;6807;48.682;9.032;2023-04-30T09:55:50;14.60;1.00
13470;DHT22;6807;48.682;9.032;2023-04-30T09:58:18;15.30;8.10
13470;DHT22;6807;48.682;9.032;2023-04-30T10:00:49;15.60;2.50
13470;DHT22;6807;48.682;9.032;2023-04-30T10:03:17;16.00;18.10
13470;DHT22;6807;48.682;9.032;2023-04-30T10:05:47;15.50;34.90
13470;DHT22;6807;48.682;9.032;2023-04-30T10:08:20;15.50;4.80
13470;DHT22;6807;48.682;9.032;2023-04-30T10:10:57;15.40;1.00
13470;DHT22;6807;48.682;9.032;2023-04-30T10:13:25;15.60;1.00
13470;DHT22;6807;48.682;9.032;2023-04-30T10:15:58;15.50;1.00
13470;DHT22;6807;48.682;9.032;2023-04-30T10:18:33;15.70;1.00
13470;DHT22;6807;48.682;9.032;2023-04-30T10:21:02;15.30;1.00
13470;DHT22;6807;48.682;9.032;2023-04-30T10:23:35;15.70;14.70
13470;DHT22;6807;48.682;9.032;2023-04-30T10:26:04;16.00;1.00
13470;DHT22;6807;48.682;9.032;2023-04-30T10:28:34;16.20;1.00
13470;DHT22;6807;48.682;9.032;2023-04-30T10:31:01;15.80;1.00
13470;DHT22;6807;48.682;9.032;2023-04-30T10:33:43;15.60;1.00
13470;DHT22;6807;48.682;9.032;2023-04-30T10:36:21;16.00;1.00
13470;DHT22;6807;48.682;9.032;2023-04-30T10:38:54;15.60;1.00
13470;DHT22;6807;48.682;9.032;2023-04-30T10:41:27;15.60;1.00
13470;DHT22;6807;48.682;9.032;2023-04-30T10:43:59;15.60;1.00
13470;DHT22;6807;48.682;9.032;2023-04-30T10:46:27;15.20;1.00
13470;DHT22;6807;48.682;9.032;2023-04-30T10:48:55;15.20;3.10
13470;DHT22;6807;48.682;9.032;2023-04-30T10:51:22;15.40;1.00
13470;DHT22;6807;48.682;9.032;2023-04-30T10:53:50;15.40;1.00
13470;DHT22;6807;48.682;9.032;2023-04-30T10:56:32;15.30;1.00
13470;DHT22;6807;48.682;9.032;2023-04-30T10:59:00;14.90;1.00
13470;DHT22;6807;48.682;9.032;2023-04-30T11:01:28;15.20;1.00
13470;DHT22;6807;48.682;9.032;2023-04-30T11:04:07;15.90;1.00
13470;DHT22;6807;48.682;9.032;2023-04-30T11:06:53;16.20;1.00
13470;DHT22;6807;48.682;9.032;2023-04-30T11:09:38;16.40;1.00
13470;DHT22;6807;48.682;9.032;2023-04-30T11:12:12;16.40;1.00
13470;DHT22;6807;48.682;9.032;2023-04-30T11:14:42;16.30;1.00
13470;DHT22;6807;48.682;9.032;2023-04-30T11:17:10;16.70;13.30
13470;DHT22;6807;48.682;9.032;2023-04-30T11:19:45;17.50;17.60
13470;DHT22;6807;48.682;9.032;2023-04-30T11:22:22;17.40;1.00
13470;DHT22;6807;48.682;9.032;2023-04-30T11:24:54;17.00;1.00
13470;DHT22;6807;48.682;9.032;2023-04-30T11:27:30;17.10;1.00
13470;DHT22;6807;48.682;9.032;2023-04-30T11:29:58;16.70;1.00
13470;DHT22;6807;48.682;9.032;2023-04-30T11:32:27;16.50;1.00
13470;DHT22;6807;48.682;9.032;2023-04-30T11:34:58;16.30;1.00
13470;DHT22;6807;48.682;9.032;2023-04-30T11:37:30;16.00;1.00
13470;DHT22;6807;48.682;9.032;2023-04-30T11:40:00;16.00;1.00
13470;DHT22;6807;48.682;9.032;2023-04-30T11:42:30;16.40;1.00
13470;DHT22;6807;48.682;9.032;2023-04-30T11:45:03;16.50;1.00
13470;DHT22;6807;48.682;9.032;2023-04-30T11:47:42;16.90;1.00
13470;DHT22;6807;48.682;9.032;2023-04-30T11:50:12;16.80;1.00
13470;DHT22;6807;48.682;9.032;2023-04-30T11:52:39;16.00;1.00
13470;DHT22;6807;48.682;9.032;2023-04-30T11:55:12;16.50;1.00
13470;DHT22;6807;48.682;9.032;2023-04-30T11:57:42;16.70;1.00
13470;DHT22;6807;48.682;9.032;2023-04-30T12:00:12;16.30;1.00
13470;DHT22;6807;48.682;9.032;2023-04-30T12:02:41;16.50;1.00
13470;DHT22;6807;48.682;9.032;2023-04-30T12:05:13;16.10;1.00
13470;DHT22;6807;48.682;9.032;2023-04-30T12:07:49;16.10;1.00
13470;DHT22;6807;48.682;9.032;2023-04-30T12:10:18;16.40;1.00
13470;DHT22;6807;48.682;9.032;2023-04-30T12:12:48;15.90;1.00
13470;DHT22;6807;48.682;9.032;2023-04-30T12:15:17;16.60;1.00
13470;DHT22;6807;48.682;9.032;2023-04-30T12:17:45;16.60;1.00
13470;DHT22;6807;48.682;9.032;2023-04-30T12:20:13;16.40;1.00
13470;DHT22;6807;48.682;9.032;2023-04-30T12:22:41;16.60;1.00
13470;DHT22;6807;48.682;9.032;2023-04-30T12:25:12;16.80;1.00
13470;DHT22;6807;48.682;9.032;2023-04-30T12:27:41;16.80;1.00
13470;DHT22;6807;48.682;9.032;2023-04-30T12:30:10;17.40;1.00
13470;DHT22;6807;48.682;9.032;2023-04-30T12:32:41;16.90;1.00
13470;DHT22;6807;48.682;9.032;2023-04-30T12:35:14;16.30;1.00
13470;DHT22;6807;48.682;9.032;2023-04-30T12:37:42;16.60;1.00
13470;DHT22;6807;48.682;9.032;2023-04-30T12:40:11;16.80;1.00
13470;DHT22;6807;48.682;9.032;2023-04-30T12:42:39;17.20;1.00
13470;DHT22;6807;48.682;9.032;2023-04-30T12:45:09;17.00;1.00
13470;DHT22;6807;48.682;9.032;2023-04-30T12:47:38;16.80;1.00
13470;DHT22;6807;48.682;9.032;2023-04-30T12:50:08;17.10;1.00
13470;DHT22;6807;48.682;9.032;2023-04-30T12:52:37;17.00;1.00
13470;DHT22;6807;48.682;9.032;2023-04-30T12:55:15;17.90;1.00
13470;DHT22;6807;48.682;9.032;2023-04-30T12:58:07;18.10;1.00
13470;DHT22;6807;48.682;9.032;2023-04-30T13:00:46;18.30;1.00
13470;DHT22;6807;48.682;9.032;2023-04-30T13:03:15;17.60;1.00
13470;DHT22;6807;48.682;9.032;2023-04-30T13:05:46;17.40;1.00
13470;DHT22;6807;48.682;9.032;2023-04-30T13:08:14;17.20;1.00
13470;DHT22;6807;48.682;9.032;2023-04-30T13:10:43;17.40;1.00
13470;DHT22;6807;48.682;9.032;2023-04-30T13:13:10;17.50;7.80
13470;DHT22;6807;48.682;9.032;2023-04-30T13:15:37;19.30;1.00
13470;DHT22;6807;48.682;9.032;2023-04-30T13:18:06;18.90;1.00
13470;DHT22;6807;48.682;9.032;2023-04-30T13:20:34;18.90;1.00
13470;DHT22;6807;48.682;9.032;2023-04-30T13:23:02;19.40;14.70
13470;DHT22;6807;48.682;9.032;2023-04-30T13:25:29;19.60;1.00
13470;DHT22;6807;48.682;9.032;2023-04-30T13:27:56;20.00;1.00
13470;DHT22;6807;48.682;9.032;2023-04-30T13:30:24;18.20;1.00
13470;DHT22;6807;48.682;9.032;2023-04-30T13:32:51;18.10;1.00
13470;DHT22;6807;48.682;9.032;2023-04-30T13:35:20;17.90;1.00
13470;DHT22;6807;48.682;9.032;2023-04-30T13:37:47;17.90;2.60
13470;DHT22;6807;48.682;9.032;2023-04-30T13:40:18;18.00;1.00
13470;DHT22;6807;48.682;9.032;2023-04-30T13:42:47;18.00;1.00
13470;DHT22;6807;48.682;9.032;2023-04-30T13:45:14;18.00;1.00
13470;DHT22;6807;48.682;9.032;2023-04-30T13:47:41;18.20;1.00
13470;DHT22;6807;48.682;9.032;2023-04-30T13:50:09;18.20;1.00
13470;DHT22;6807;48.682;9.032;2023-04-30T13:52:37;17.90;1.00
13470;DHT22;6807;48.682;9.032;2023-04-30T13:55:06;17.60;1.00
13470;DHT22;6807;48.682;9.032;2023-04-30T13:57:33;17.30;1.00
13470;DHT22;6807;48.682;9.032;2023-04-30T14:00:00;17.00;1.00
13470;DHT22;6807;48.682;9.032;2023-04-30T14:02:30;16.20;1.00
13470;DHT22;6807;48.682;9.032;2023-04-30T14:04:57;16.30;1.00
13470;DHT22;6807;48.682;9.032;2023-04-30T14:07:25;16.40;1.00
13470;DHT22;6807;48.682;9.032;2023-04-30T14:09:53;16.70;1.00
13470;DHT22;6807;48.682;9.032;2023-04-30T14:12:20;16.90;1.00
13470;DHT22;6807;48.682;9.032;2023-04-30T14:14:49;16.70;1.00
13470;DHT22;6807;48.682;9.032;2023-04-30T14:17:16;16.40;1.00
13470;DHT22;6807;48.682;9.032;2023-04-30T14:19:43;16.30;1.00
13470;DHT22;6807;48.682;9.032;2023-04-30T14:22:11;16.90;1.00
13470;DHT22;6807;48.682;9.032;2023-04-30T14:24:38;17.30;1.00
13470;DHT22;6807;48.682;9.032;2023-04-30T14:27:07;17.80;1.00
13470;DHT22;6807;48.682;9.032;2023-04-30T14:29:34;18.30;20.50
13470;DHT22;6807;48.682;9.032;2023-04-30T14:32:01;18.20;1.00
13470;DHT22;6807;48.682;9.032;2023-04-30T14:34:28;18.40;1.00
13470;DHT22;6807;48.682;9.032;2023-04-30T14:36:56;18.40;1.00
13470;DHT22;6807;48.682;9.032;2023-04-30T14:39:26;18.10;1.00
13470;DHT22;6807;48.682;9.032;2023-04-30T14:41:53;18.90;1.00
13470;DHT22;6807;48.682;9.032;2023-04-30T14:44:23;18.80;1.00
13470;DHT22;6807;48.682;9.032;2023-04-30T14:46:51;18.40;1.00
13470;DHT22;6807;48.682;9.032;2023-04-30T14:49:18;18.40;1.00
13470;DHT22;6807;48.682;9.032;2023-04-30T14:51:45;18.10;1.00
13470;DHT22;6807;48.682;9.032;2023-04-30T14:54:12;18.00;1.00
13470;DHT22;6807;48.682;9.032;2023-04-30T14:56:41;17.70;1.00
13470;DHT22;6807;48.682;9.032;2023-04-30T14:59:09;17.60;1.00
13470;DHT22;6807;48.682;9.032;2023-04-30T15:01:38;17.80;1.00
13470;DHT22;6807;48.682;9.032;2023-04-30T15:04:05;17.90;1.00
13470;DHT22;6807;48.682;9.032;2023-04-30T15:06:32;17.80;1.00
13470;DHT22;6807;48.682;9.032;2023-04-30T15:09:00;17.50;1.00
13470;DHT22;6807;48.682;9.032;2023-04-30T15:11:27;17.60;1.00
13470;DHT22;6807;48.682;9.032;2023-04-30T15:13:55;17.60;1.00
13470;DHT22;6807;48.682;9.032;2023-04-30T15:16:22;17.20;1.00
13470;DHT22;6807;48.682;9.032;2023-04-30T15:18:51;17.50;1.00
13470;DHT22;6807;48.682;9.032;2023-04-30T15:21:18;17.40;1.00
13470;DHT22;6807;48.682;9.032;2023-04-30T15:23:45;17.30;1.00
13470;DHT22;6807;48.682;9.032;2023-04-30T15:26:12;16.80;1.00
13470;DHT22;6807;48.682;9.032;2023-04-30T15:28:39;17.00;1.00
13470;DHT22;6807;48.682;9.032;2023-04-30T15:31:06;16.60;1.00
13470;DHT22;6807;48.682;9.032;2023-04-30T15:33:36;17.20;1.00
13470;DHT22;6807;48.682;9.032;2023-04-30T15:36:09;16.80;1.00
13470;DHT22;6807;48.682;9.032;2023-04-30T15:38:36;17.60;1.00
13470;DHT22;6807;48.682;9.032;2023-04-30T15:41:03;17.50;1.00
13470;DHT22;6807;48.682;9.032;2023-04-30T15:43:30;17.40;1.00
13470;DHT22;6807;48.682;9.032;2023-04-30T15:45:58;17.10;1.00
13470;DHT22;6807;48.682;9.032;2023-04-30T15:48:25;16.90;1.00
13470;DHT22;6807;48.682;9.032;2023-04-30T15:50:52;16.80;1.00
13470;DHT22;6807;48.682;9.032;2023-04-30T15:53:22;17.00;1.00
13470;DHT22;6807;48.682;9.032;2023-04-30T15:55:50;17.10;1.00
13470;DHT22;6807;48.682;9.032;2023-04-30T15:58:18;17.00;1.00
13470;DHT22;6807;48.682;9.032;2023-04-30T16:00:45;16.80;1.00
13470;DHT22;6807;48.682;9.032;2023-04-30T16:03:12;16.50;1.00
13470;DHT22;6807;48.682;9.032;2023-04-30T16:05:40;16.10;1.00
13470;DHT22;6807;48.682;9.032;2023-04-30T16:08:07;15.90;1.00
13470;DHT22;6807;48.682;9.032;2023-04-30T16:10:37;16.10;1.00
13470;DHT22;6807;48.682;9.032;2023-04-30T16:13:04;16.00;1.00